KLM2633 EBBR-LFPO
Flight info
| Callsign | KLM2633 |
|---|---|
| Flight time | 0h 55m |
| Altitude | 17000 |
| Route | CIV Y50 MATIX |
| Aircraft | B738/M-SDE2E3FGHIRWXY/LB1 |
Departure
| Time | 2026-04-30 13:02 |
|---|---|
| Airport | Brussels Airport (EBBR) |
Arrival
| Time | 2026-04-30 13:58 |
|---|---|
| Airport | Paris-Orly Airport (LFPO) |
| Time | Latitude | Longitude | Altitude | Speed | Heading |
|---|---|---|---|---|---|
| 2026-04-30 12:25 | 50.89994 | 4.48828 | 192 ft | 0 kts | 336° |
| 2026-04-30 12:52 | 50.89990 | 4.48831 | 192 ft | 3 kts | 336° |
| 2026-04-30 12:52 | 50.89966 | 4.48848 | 192 ft | 4 kts | 336° |
| 2026-04-30 12:53 | 50.89941 | 4.48865 | 192 ft | 4 kts | 336° |
| 2026-04-30 12:53 | 50.89917 | 4.48883 | 192 ft | 4 kts | 327° |
| 2026-04-30 12:53 | 50.89898 | 4.48911 | 192 ft | 4 kts | 295° |
| 2026-04-30 12:53 | 50.89896 | 4.48942 | 192 ft | 1 kts | 245° |
| 2026-04-30 12:54 | 50.89896 | 4.48943 | 192 ft | 0 kts | 245° |
| 2026-04-30 12:56 | 50.89876 | 4.48920 | 192 ft | 8 kts | 184° |
| 2026-04-30 12:56 | 50.89810 | 4.48968 | 192 ft | 10 kts | 151° |
| 2026-04-30 12:56 | 50.89757 | 4.49015 | 192 ft | 9 kts | 152° |
| 2026-04-30 12:57 | 50.89691 | 4.49072 | 192 ft | 11 kts | 148° |
| 2026-04-30 12:57 | 50.89636 | 4.49130 | 192 ft | 8 kts | 148° |
| 2026-04-30 12:57 | 50.89597 | 4.49184 | 192 ft | 8 kts | 156° |
| 2026-04-30 12:57 | 50.89532 | 4.49183 | 192 ft | 11 kts | 192° |
| 2026-04-30 12:58 | 50.89445 | 4.49144 | 192 ft | 14 kts | 196° |
| 2026-04-30 12:58 | 50.89351 | 4.49091 | 192 ft | 13 kts | 226° |
| 2026-04-30 12:58 | 50.89316 | 4.48990 | 192 ft | 7 kts | 249° |
| 2026-04-30 12:58 | 50.89300 | 4.48922 | 192 ft | 6 kts | 250° |
| 2026-04-30 12:59 | 50.89281 | 4.48840 | 192 ft | 11 kts | 250° |
| 2026-04-30 12:59 | 50.89246 | 4.48690 | 192 ft | 17 kts | 249° |
| 2026-04-30 12:59 | 50.89207 | 4.48525 | 192 ft | 14 kts | 248° |
| 2026-04-30 12:59 | 50.89176 | 4.48390 | 192 ft | 14 kts | 250° |
| 2026-04-30 13:00 | 50.89139 | 4.48234 | 192 ft | 16 kts | 252° |
| 2026-04-30 13:00 | 50.89099 | 4.48057 | 192 ft | 16 kts | 248° |
| 2026-04-30 13:00 | 50.89054 | 4.47927 | 192 ft | 11 kts | 214° |
| 2026-04-30 13:00 | 50.89003 | 4.47905 | 192 ft | 5 kts | 180° |
| 2026-04-30 13:01 | 50.88986 | 4.47909 | 192 ft | 2 kts | 164° |
| 2026-04-30 13:01 | 50.88964 | 4.47930 | 192 ft | 5 kts | 136° |
| 2026-04-30 13:01 | 50.88942 | 4.47988 | 192 ft | 7 kts | 117° |
| 2026-04-30 13:01 | 50.88923 | 4.48098 | 192 ft | 17 kts | 84° |
| 2026-04-30 13:02 | 50.89014 | 4.48514 | 192 ft | 72 kts | 70° |
| 2026-04-30 13:02 | 50.89258 | 4.49575 | 192 ft | 131 kts | 69° |
| 2026-04-30 13:02 | 50.89602 | 4.51062 | 565 ft | 154 kts | 69° |
| 2026-04-30 13:02 | 50.90018 | 4.52644 | 1412 ft | 149 kts | 65° |
| 2026-04-30 13:03 | 50.90563 | 4.54009 | 2235 ft | 155 kts | 45° |
| 2026-04-30 13:03 | 50.91652 | 4.54685 | 2733 ft | 190 kts | 9° |
| 2026-04-30 13:03 | 50.93056 | 4.54174 | 3113 ft | 228 kts | 338° |
| 2026-04-30 13:03 | 50.94341 | 4.52337 | 3492 ft | 260 kts | 307° |
| 2026-04-30 13:04 | 50.95023 | 4.49628 | 4149 ft | 269 kts | 281° |
| 2026-04-30 13:04 | 50.95118 | 4.46642 | 4953 ft | 277 kts | 263° |
| 2026-04-30 13:04 | 50.94853 | 4.43558 | 5686 ft | 288 kts | 260° |
| 2026-04-30 13:04 | 50.94507 | 4.40399 | 6518 ft | 292 kts | 250° |
| 2026-04-30 13:05 | 50.93640 | 4.37525 | 7429 ft | 288 kts | 230° |
| 2026-04-30 13:05 | 50.92345 | 4.35112 | 8334 ft | 288 kts | 222° |
| 2026-04-30 13:05 | 50.90924 | 4.32839 | 9191 ft | 292 kts | 219° |
| 2026-04-30 13:06 | 50.87894 | 4.28341 | 10873 ft | 302 kts | 219° |
| 2026-04-30 13:06 | 50.86331 | 4.26036 | 11529 ft | 314 kts | 219° |
| 2026-04-30 13:06 | 50.84690 | 4.23610 | 11962 ft | 332 kts | 219° |
| 2026-04-30 13:06 | 50.82957 | 4.21047 | 12327 ft | 352 kts | 220° |
| 2026-04-30 13:07 | 50.81119 | 4.18328 | 12633 ft | 371 kts | 220° |
| 2026-04-30 13:07 | 50.79210 | 4.15457 | 13076 ft | 385 kts | 220° |
| 2026-04-30 13:07 | 50.77253 | 4.12522 | 13749 ft | 390 kts | 220° |
| 2026-04-30 13:07 | 50.75257 | 4.09546 | 14484 ft | 394 kts | 220° |
| 2026-04-30 13:08 | 50.73265 | 4.06593 | 15186 ft | 398 kts | 220° |
| 2026-04-30 13:08 | 50.71235 | 4.03597 | 15886 ft | 401 kts | 220° |
| 2026-04-30 13:08 | 50.69185 | 4.00578 | 16557 ft | 405 kts | 220° |
| 2026-04-30 13:08 | 50.67066 | 3.97465 | 17066 ft | 409 kts | 220° |
| 2026-04-30 13:09 | 50.65003 | 3.94435 | 17272 ft | 412 kts | 220° |
| 2026-04-30 13:09 | 50.62871 | 3.91313 | 17290 ft | 424 kts | 220° |
| 2026-04-30 13:09 | 50.60676 | 3.88167 | 17285 ft | 428 kts | 216° |
| 2026-04-30 13:09 | 50.58127 | 3.85777 | 17287 ft | 425 kts | 200° |
| 2026-04-30 13:10 | 50.55293 | 3.84605 | 17289 ft | 420 kts | 185° |
| 2026-04-30 13:10 | 50.52350 | 3.84427 | 17291 ft | 417 kts | 176° |
| 2026-04-30 13:10 | 50.49452 | 3.84652 | 17285 ft | 416 kts | 173° |
| 2026-04-30 13:10 | 50.46572 | 3.85110 | 17282 ft | 416 kts | 171° |
| 2026-04-30 13:11 | 50.43701 | 3.85632 | 17277 ft | 416 kts | 171° |
| 2026-04-30 13:11 | 50.40827 | 3.86140 | 17273 ft | 416 kts | 171° |
| 2026-04-30 13:11 | 50.37949 | 3.86638 | 17271 ft | 416 kts | 171° |
| 2026-04-30 13:11 | 50.35075 | 3.87131 | 17270 ft | 416 kts | 171° |
| 2026-04-30 13:12 | 50.32198 | 3.87623 | 17270 ft | 416 kts | 171° |
| 2026-04-30 13:12 | 50.29324 | 3.88112 | 17270 ft | 416 kts | 171° |
| 2026-04-30 13:12 | 50.26451 | 3.88597 | 17269 ft | 416 kts | 171° |
| 2026-04-30 13:13 | 50.20697 | 3.89568 | 17268 ft | 416 kts | 171° |
| 2026-04-30 13:13 | 50.17820 | 3.90052 | 17267 ft | 416 kts | 172° |
| 2026-04-30 13:13 | 50.12069 | 3.91018 | 17265 ft | 416 kts | 172° |
| 2026-04-30 13:14 | 50.09195 | 3.91502 | 17264 ft | 416 kts | 171° |
| 2026-04-30 13:14 | 50.06318 | 3.91990 | 17263 ft | 416 kts | 171° |
| 2026-04-30 13:14 | 50.00572 | 3.92960 | 17260 ft | 416 kts | 171° |
| 2026-04-30 13:15 | 49.97696 | 3.93445 | 17259 ft | 416 kts | 171° |
| 2026-04-30 13:15 | 49.92913 | 3.94252 | 17256 ft | 416 kts | 171° |
| 2026-04-30 13:15 | 49.89063 | 3.94899 | 17253 ft | 416 kts | 171° |
| 2026-04-30 13:16 | 49.86193 | 3.95381 | 17252 ft | 415 kts | 171° |
| 2026-04-30 13:16 | 49.84174 | 3.95719 | 17250 ft | 415 kts | 171° |
| 2026-04-30 13:16 | 49.81298 | 3.96202 | 17248 ft | 415 kts | 171° |
| 2026-04-30 13:17 | 49.75550 | 3.97161 | 17244 ft | 415 kts | 171° |
| 2026-04-30 13:17 | 49.72605 | 3.97651 | 17243 ft | 415 kts | 171° |
| 2026-04-30 13:17 | 49.66887 | 3.98623 | 17239 ft | 415 kts | 171° |
| 2026-04-30 13:18 | 49.64063 | 3.99099 | 17237 ft | 401 kts | 171° |
| 2026-04-30 13:18 | 49.58628 | 4.00007 | 17235 ft | 387 kts | 171° |
| 2026-04-30 13:18 | 49.55957 | 4.00451 | 17233 ft | 385 kts | 171° |
| 2026-04-30 13:19 | 49.53306 | 4.00892 | 16968 ft | 380 kts | 171° |
| 2026-04-30 13:19 | 49.50619 | 4.01337 | 16524 ft | 376 kts | 171° |
| 2026-04-30 13:19 | 49.47908 | 4.01786 | 15972 ft | 374 kts | 171° |
| 2026-04-30 13:19 | 49.45339 | 4.02210 | 15450 ft | 372 kts | 171° |
| 2026-04-30 13:20 | 49.42763 | 4.02518 | 14922 ft | 372 kts | 179° |
| 2026-04-30 13:20 | 49.40221 | 4.01767 | 14437 ft | 375 kts | 197° |
| 2026-04-30 13:20 | 49.37925 | 3.99923 | 14259 ft | 374 kts | 212° |
| 2026-04-30 13:20 | 49.36082 | 3.97015 | 13737 ft | 380 kts | 233° |
| 2026-04-30 13:21 | 49.34814 | 3.93474 | 13395 ft | 378 kts | 243° |
| 2026-04-30 13:21 | 49.33772 | 3.89779 | 13079 ft | 377 kts | 244° |
| 2026-04-30 13:21 | 49.32703 | 3.86124 | 12764 ft | 375 kts | 244° |
| 2026-04-30 13:22 | 49.30434 | 3.78956 | 12149 ft | 372 kts | 240° |
| 2026-04-30 13:22 | 49.29251 | 3.75436 | 11842 ft | 371 kts | 240° |
| 2026-04-30 13:22 | 49.26969 | 3.68436 | 11309 ft | 367 kts | 244° |
| 2026-04-30 13:23 | 49.26097 | 3.64702 | 11243 ft | 368 kts | 251° |
| 2026-04-30 13:23 | 49.24959 | 3.57240 | 11222 ft | 352 kts | 257° |
| 2026-04-30 13:24 | 49.24060 | 3.50093 | 11216 ft | 328 kts | 257° |
| 2026-04-30 13:24 | 49.23165 | 3.43374 | 11206 ft | 305 kts | 256° |
| 2026-04-30 13:25 | 49.22279 | 3.37011 | 11215 ft | 310 kts | 256° |
| 2026-04-30 13:25 | 49.21366 | 3.30568 | 11214 ft | 310 kts | 256° |
| 2026-04-30 13:26 | 49.19966 | 3.20903 | 11197 ft | 309 kts | 255° |
| 2026-04-30 13:26 | 49.19042 | 3.14476 | 11199 ft | 310 kts | 256° |
| 2026-04-30 13:27 | 49.18128 | 3.08048 | 11195 ft | 309 kts | 256° |
| 2026-04-30 13:28 | 49.16764 | 2.98402 | 11189 ft | 309 kts | 255° |
| 2026-04-30 13:28 | 49.15821 | 2.91988 | 11188 ft | 310 kts | 255° |
| 2026-04-30 13:28 | 49.15345 | 2.88783 | 11184 ft | 309 kts | 255° |
| 2026-04-30 13:29 | 49.14382 | 2.82360 | 11179 ft | 309 kts | 255° |
| 2026-04-30 13:29 | 49.13406 | 2.75918 | 11176 ft | 309 kts | 255° |
| 2026-04-30 13:30 | 49.12113 | 2.67416 | 11173 ft | 309 kts | 255° |
| 2026-04-30 13:31 | 49.10978 | 2.59894 | 11171 ft | 309 kts | 256° |
| 2026-04-30 13:31 | 49.10517 | 2.51171 | 11172 ft | 311 kts | 267° |
| 2026-04-30 13:32 | 49.10458 | 2.44513 | 11171 ft | 311 kts | 267° |
| 2026-04-30 13:32 | 49.10370 | 2.37932 | 11168 ft | 311 kts | 267° |
| 2026-04-30 13:33 | 49.10254 | 2.31248 | 11162 ft | 311 kts | 266° |
| 2026-04-30 13:33 | 49.10128 | 2.24688 | 11160 ft | 313 kts | 266° |
| 2026-04-30 13:34 | 49.10060 | 2.21339 | 11155 ft | 311 kts | 266° |
| 2026-04-30 13:34 | 49.09923 | 2.11468 | 11148 ft | 311 kts | 266° |
| 2026-04-30 13:35 | 49.09859 | 2.08106 | 11142 ft | 313 kts | 266° |
| 2026-04-30 13:35 | 49.09717 | 2.01453 | 11141 ft | 311 kts | 266° |
| 2026-04-30 13:36 | 49.09566 | 1.94846 | 11140 ft | 311 kts | 266° |
| 2026-04-30 13:36 | 49.09486 | 1.91554 | 11140 ft | 311 kts | 265° |
| 2026-04-30 13:36 | 49.09313 | 1.84725 | 11145 ft | 313 kts | 266° |
| 2026-04-30 13:37 | 49.09231 | 1.81424 | 11142 ft | 311 kts | 265° |
| 2026-04-30 13:37 | 49.09069 | 1.74883 | 11130 ft | 302 kts | 265° |
| 2026-04-30 13:38 | 49.07870 | 1.69089 | 10819 ft | 280 kts | 231° |
| 2026-04-30 13:38 | 49.06625 | 1.66792 | 10580 ft | 276 kts | 224° |
| 2026-04-30 13:38 | 49.03988 | 1.62597 | 10078 ft | 272 kts | 222° |
| 2026-04-30 13:39 | 49.01389 | 1.58426 | 9577 ft | 269 kts | 223° |
| 2026-04-30 13:39 | 48.98838 | 1.54274 | 9074 ft | 267 kts | 223° |
| 2026-04-30 13:40 | 48.97576 | 1.52214 | 8823 ft | 265 kts | 223° |
| 2026-04-30 13:40 | 48.96325 | 1.50171 | 8572 ft | 263 kts | 223° |
| 2026-04-30 13:40 | 48.94866 | 1.48633 | 8332 ft | 252 kts | 197° |
| 2026-04-30 13:40 | 48.93193 | 1.48051 | 8124 ft | 244 kts | 185° |
| 2026-04-30 13:41 | 48.91516 | 1.47807 | 7875 ft | 240 kts | 181° |
| 2026-04-30 13:41 | 48.89853 | 1.47698 | 7626 ft | 238 kts | 179° |
| 2026-04-30 13:41 | 48.88199 | 1.47645 | 7372 ft | 236 kts | 179° |
| 2026-04-30 13:41 | 48.86577 | 1.47578 | 7128 ft | 236 kts | 178° |
| 2026-04-30 13:42 | 48.84919 | 1.47561 | 6875 ft | 234 kts | 178° |
| 2026-04-30 13:42 | 48.83311 | 1.47541 | 6621 ft | 230 kts | 178° |
| 2026-04-30 13:42 | 48.80186 | 1.47508 | 6117 ft | 223 kts | 178° |
| 2026-04-30 13:43 | 48.78638 | 1.47491 | 5869 ft | 222 kts | 178° |
| 2026-04-30 13:43 | 48.77104 | 1.47473 | 5616 ft | 219 kts | 178° |
| 2026-04-30 13:43 | 48.75581 | 1.47450 | 5366 ft | 219 kts | 178° |
| 2026-04-30 13:43 | 48.74056 | 1.47423 | 5118 ft | 219 kts | 178° |
| 2026-04-30 13:44 | 48.72539 | 1.47391 | 4864 ft | 218 kts | 178° |
| 2026-04-30 13:44 | 48.71023 | 1.47347 | 4614 ft | 218 kts | 178° |
| 2026-04-30 13:44 | 48.69508 | 1.47295 | 4366 ft | 218 kts | 178° |
| 2026-04-30 13:44 | 48.67946 | 1.47241 | 4116 ft | 223 kts | 178° |
| 2026-04-30 13:45 | 48.65017 | 1.47806 | 3906 ft | 208 kts | 140° |
| 2026-04-30 13:45 | 48.64251 | 1.49597 | 3949 ft | 208 kts | 110° |
| 2026-04-30 13:45 | 48.63850 | 1.51731 | 3988 ft | 212 kts | 105° |
| 2026-04-30 13:46 | 48.63489 | 1.53896 | 3981 ft | 213 kts | 105° |
| 2026-04-30 13:46 | 48.63129 | 1.56062 | 3969 ft | 212 kts | 105° |
| 2026-04-30 13:46 | 48.62767 | 1.58226 | 3961 ft | 211 kts | 104° |
| 2026-04-30 13:46 | 48.62412 | 1.60353 | 3959 ft | 209 kts | 104° |
| 2026-04-30 13:47 | 48.62053 | 1.62498 | 3975 ft | 215 kts | 105° |
| 2026-04-30 13:47 | 48.61681 | 1.64712 | 3967 ft | 214 kts | 105° |
| 2026-04-30 13:47 | 48.61319 | 1.66870 | 3969 ft | 213 kts | 105° |
| 2026-04-30 13:47 | 48.60950 | 1.69047 | 3968 ft | 214 kts | 105° |
| 2026-04-30 13:48 | 48.60587 | 1.71211 | 3960 ft | 211 kts | 105° |
| 2026-04-30 13:48 | 48.60231 | 1.73328 | 3957 ft | 209 kts | 104° |
| 2026-04-30 13:48 | 48.59872 | 1.75455 | 3961 ft | 210 kts | 105° |
| 2026-04-30 13:48 | 48.59510 | 1.77606 | 3969 ft | 213 kts | 105° |
| 2026-04-30 13:49 | 48.59143 | 1.79768 | 3972 ft | 212 kts | 105° |
| 2026-04-30 13:49 | 48.58778 | 1.81913 | 3959 ft | 210 kts | 105° |
| 2026-04-30 13:49 | 48.58407 | 1.84078 | 3965 ft | 214 kts | 105° |
| 2026-04-30 13:49 | 48.58033 | 1.86252 | 3967 ft | 214 kts | 105° |
| 2026-04-30 13:50 | 48.57688 | 1.88430 | 3956 ft | 213 kts | 98° |
| 2026-04-30 13:50 | 48.58678 | 1.92599 | 3979 ft | 220 kts | 66° |
| 2026-04-30 13:50 | 48.59367 | 1.94650 | 3969 ft | 217 kts | 65° |
| 2026-04-30 13:51 | 48.60041 | 1.96672 | 3982 ft | 213 kts | 66° |
| 2026-04-30 13:51 | 48.60613 | 1.98674 | 3960 ft | 204 kts | 70° |
| 2026-04-30 13:51 | 48.60981 | 1.99996 | 3944 ft | 194 kts | 70° |
| 2026-04-30 13:51 | 48.61517 | 2.01828 | 3938 ft | 187 kts | 68° |
| 2026-04-30 13:52 | 48.62076 | 2.03555 | 3931 ft | 178 kts | 66° |
| 2026-04-30 13:52 | 48.62620 | 2.05162 | 3913 ft | 168 kts | 66° |
| 2026-04-30 13:52 | 48.63326 | 2.07198 | 3862 ft | 162 kts | 66° |
| 2026-04-30 13:52 | 48.63680 | 2.08207 | 3763 ft | 159 kts | 65° |
| 2026-04-30 13:53 | 48.64198 | 2.09677 | 3541 ft | 156 kts | 65° |
| 2026-04-30 13:53 | 48.64697 | 2.11089 | 3324 ft | 150 kts | 65° |
| 2026-04-30 13:53 | 48.65181 | 2.12456 | 3124 ft | 144 kts | 66° |
| 2026-04-30 13:53 | 48.65639 | 2.13747 | 2940 ft | 133 kts | 66° |
| 2026-04-30 13:54 | 48.66053 | 2.14914 | 2804 ft | 121 kts | 66° |
| 2026-04-30 13:54 | 48.66450 | 2.16036 | 2635 ft | 122 kts | 65° |
| 2026-04-30 13:54 | 48.66853 | 2.17171 | 2471 ft | 126 kts | 65° |
| 2026-04-30 13:54 | 48.67278 | 2.18368 | 2300 ft | 129 kts | 65° |
| 2026-04-30 13:55 | 48.67701 | 2.19562 | 2129 ft | 132 kts | 65° |
| 2026-04-30 13:55 | 48.68136 | 2.20789 | 1944 ft | 132 kts | 65° |
| 2026-04-30 13:55 | 48.68582 | 2.22048 | 1761 ft | 131 kts | 64° |
| 2026-04-30 13:55 | 48.69006 | 2.23244 | 1591 ft | 130 kts | 64° |
| 2026-04-30 13:56 | 48.69438 | 2.24462 | 1417 ft | 130 kts | 64° |
| 2026-04-30 13:56 | 48.69867 | 2.25675 | 1243 ft | 130 kts | 65° |
| 2026-04-30 13:56 | 48.70299 | 2.26890 | 1060 ft | 132 kts | 65° |
| 2026-04-30 13:56 | 48.70728 | 2.28107 | 903 ft | 129 kts | 65° |
| 2026-04-30 13:57 | 48.71125 | 2.29300 | 691 ft | 125 kts | 64° |
| 2026-04-30 13:57 | 48.71551 | 2.30412 | 525 ft | 119 kts | 62° |
| 2026-04-30 13:57 | 48.71941 | 2.31521 | 372 ft | 120 kts | 63° |
| 2026-04-30 13:57 | 48.72315 | 2.32600 | 306 ft | 106 kts | 58° |
| 2026-04-30 13:58 | 48.72590 | 2.33365 | 299 ft | 54 kts | 61° |
| 2026-04-30 13:58 | 48.72708 | 2.33695 | 299 ft | 16 kts | 62° |
| 2026-04-30 13:58 | 48.72753 | 2.33846 | 299 ft | 15 kts | 78° |
| 2026-04-30 13:59 | 48.72767 | 2.33998 | 299 ft | 14 kts | 83° |
| 2026-04-30 13:59 | 48.72779 | 2.34118 | 299 ft | 9 kts | 78° |
| 2026-04-30 13:59 | 48.72787 | 2.34201 | 299 ft | 8 kts | 85° |
| 2026-04-30 13:59 | 48.72794 | 2.34288 | 299 ft | 9 kts | 82° |
| 2026-04-30 14:00 | 48.72803 | 2.34383 | 299 ft | 9 kts | 81° |
| 2026-04-30 14:00 | 48.72822 | 2.34592 | 299 ft | 11 kts | 83° |
| 2026-04-30 14:00 | 48.72832 | 2.34705 | 299 ft | 11 kts | 81° |
| 2026-04-30 14:01 | 48.72843 | 2.34823 | 299 ft | 11 kts | 82° |
| 2026-04-30 14:01 | 48.72854 | 2.34944 | 299 ft | 12 kts | 81° |
| 2026-04-30 14:01 | 48.72865 | 2.35067 | 299 ft | 12 kts | 82° |
| 2026-04-30 14:01 | 48.72877 | 2.35193 | 299 ft | 12 kts | 81° |
| 2026-04-30 14:02 | 48.72890 | 2.35321 | 299 ft | 12 kts | 83° |
| 2026-04-30 14:02 | 48.72902 | 2.35446 | 299 ft | 11 kts | 83° |
| 2026-04-30 14:02 | 48.72912 | 2.35535 | 299 ft | 6 kts | 64° |
| 2026-04-30 14:02 | 48.72924 | 2.35567 | 299 ft | 1 kts | 69° |
| 2026-04-30 14:03 | 48.72920 | 2.35606 | 299 ft | 7 kts | 126° |
| 2026-04-30 14:03 | 48.72894 | 2.35661 | 299 ft | 0 kts | 120° |